createdAt,value
2023-08-31T00:01:36.842Z,99565.20
2023-08-31T00:06:43.435Z,99568.80
2023-08-31T00:11:48.358Z,99564.00
2023-08-31T00:16:59.014Z,99567.80
2023-08-31T00:22:01.779Z,99564.60
2023-08-31T00:27:07.936Z,99567.40
2023-08-31T00:32:16.997Z,99564.40
2023-08-31T00:37:22.318Z,99560.60
2023-08-31T00:42:32.355Z,99565.80
2023-08-31T00:47:37.727Z,99568.20
2023-08-31T00:52:42.319Z,99570.20
2023-08-31T00:57:45.868Z,99569.60
2023-08-31T01:03:04.759Z,99569.00
2023-08-31T01:08:46.973Z,99568.00
2023-08-31T01:14:06.762Z,99557.20
2023-08-31T01:19:51.150Z,99555.60
2023-08-31T01:24:55.276Z,99551.80
2023-08-31T01:29:57.985Z,99550.80
2023-08-31T01:35:08.258Z,99558.00
2023-08-31T01:40:24.735Z,99557.40
2023-08-31T01:45:32.339Z,99558.40
2023-08-31T01:50:35.152Z,99561.40
2023-08-31T01:55:38.387Z,99562.40
2023-08-31T02:00:41.275Z,99563.80
2023-08-31T02:06:05.807Z,99563.00
2023-08-31T02:11:08.521Z,99566.80
2023-08-31T02:16:12.872Z,99570.00
2023-08-31T02:21:16.715Z,99574.60
2023-08-31T02:26:23.901Z,99578.40
2023-08-31T02:31:26.703Z,99578.60
2023-08-31T02:36:31.368Z,99580.60
2023-08-31T02:41:43.107Z,99573.00
2023-08-31T02:47:36.184Z,99576.20
2023-08-31T02:52:49.762Z,99575.40
2023-08-31T02:57:54.233Z,99573.00
2023-08-31T03:02:56.957Z,99570.20
2023-08-31T03:07:59.756Z,99581.80
2023-08-31T03:13:05.816Z,99590.00
2023-08-31T03:18:10.979Z,99592.20
2023-08-31T03:23:14.311Z,99599.40
2023-08-31T03:28:17.217Z,99602.80
2023-08-31T03:33:22.362Z,99604.60
2023-08-31T03:38:27.118Z,99611.60
2023-08-31T03:43:30.209Z,99611.40
2023-08-31T03:48:33.016Z,99616.00
2023-08-31T03:53:38.363Z,99617.00
2023-08-31T03:58:41.045Z,99617.20
2023-08-31T04:03:47.013Z,99614.00
2023-08-31T04:08:50.097Z,99617.60
2023-08-31T04:13:54.437Z,99634.40
2023-08-31T04:19:01.437Z,99637.80
2023-08-31T04:24:10.858Z,99637.60
2023-08-31T04:29:20.071Z,99641.80
2023-08-31T04:34:28.195Z,99640.00
2023-08-31T04:39:33.318Z,99639.40
2023-08-31T04:44:42.562Z,99641.80
2023-08-31T04:49:45.338Z,99648.40
2023-08-31T04:54:48.205Z,99650.80
2023-08-31T05:00:15.448Z,99662.40
2023-08-31T05:05:23.214Z,99669.20
2023-08-31T05:10:35.359Z,99674.40
2023-08-31T05:15:40.479Z,99671.80
2023-08-31T05:20:52.045Z,99671.60
2023-08-31T05:25:55.010Z,99673.80
2023-08-31T05:31:01.660Z,99680.40
2023-08-31T05:36:08.490Z,99690.80
2023-08-31T05:41:11.163Z,99694.20
2023-08-31T05:46:14.148Z,99700.80
2023-08-31T05:51:19.387Z,99701.00
2023-08-31T05:56:22.125Z,99702.40
2023-08-31T06:01:24.766Z,99710.00
2023-08-31T06:06:27.604Z,99711.60
2023-08-31T06:11:32.056Z,99716.60
2023-08-31T06:16:38.871Z,99714.80
2023-08-31T06:21:42.483Z,99719.00
2023-08-31T06:26:45.341Z,99723.00
2023-08-31T06:31:48.069Z,99726.60
2023-08-31T06:36:56.666Z,99736.00
2023-08-31T06:42:03.355Z,99740.60
2023-08-31T06:47:06.297Z,99745.80
2023-08-31T06:52:21.731Z,99748.40
2023-08-31T06:57:35.776Z,99750.40
2023-08-31T07:02:42.910Z,99754.80
2023-08-31T07:07:45.684Z,99764.20
2023-08-31T07:12:48.619Z,99770.00
2023-08-31T07:18:38.717Z,99770.40
2023-08-31T07:23:41.934Z,99762.20
2023-08-31T07:28:44.736Z,99751.40
2023-08-31T07:33:50.561Z,99755.40
2023-08-31T07:38:53.397Z,99763.60
2023-08-31T07:44:24.633Z,99761.40
2023-08-31T07:51:24.339Z,99754.60
2023-08-31T07:56:26.978Z,99760.40
2023-08-31T08:02:48.390Z,99766.60
2023-08-31T08:13:48.366Z,99774.00
2023-08-31T08:18:54.575Z,99783.00
2023-08-31T08:30:38.367Z,99794.20
2023-08-31T08:44:19.444Z,99814.80
2023-08-31T08:49:24.465Z,99806.60
2023-08-31T08:54:28.695Z,99802.20
2023-08-31T09:00:03.542Z,99813.00
2023-08-31T09:05:09.579Z,99819.20
2023-08-31T09:10:13.339Z,99809.20
2023-08-31T09:15:16.111Z,99809.80
2023-08-31T09:24:00.642Z,99804.20
2023-08-31T10:16:21.218Z,99849.00
2023-08-31T10:21:40.327Z,99851.00
2023-08-31T10:26:51.608Z,99838.20
2023-08-31T10:32:04.407Z,99841.00
2023-08-31T10:37:22.587Z,99846.60
2023-08-31T10:42:25.271Z,99841.80
2023-08-31T10:47:42.662Z,99847.40
2023-08-31T10:52:48.444Z,99854.00
2023-08-31T10:58:12.973Z,99859.80
2023-08-31T11:03:16.007Z,99860.20
2023-08-31T11:08:27.447Z,99853.60
2023-08-31T11:19:08.346Z,99843.20
2023-08-31T11:24:41.674Z,99838.80
2023-08-31T11:29:59.911Z,99840.80
2023-08-31T11:35:08.854Z,99848.60
2023-08-31T11:40:12.397Z,99839.60
2023-08-31T11:45:20.249Z,99846.20
2023-08-31T11:56:51.956Z,99837.80
2023-08-31T12:03:17.400Z,99834.80
2023-08-31T12:08:29.056Z,99828.80
2023-08-31T12:13:36.307Z,99829.00
2023-08-31T12:18:53.658Z,99838.20
2023-08-31T12:24:03.536Z,99839.40
2023-08-31T12:29:16.525Z,99835.80
2023-08-31T12:34:19.258Z,99831.20
2023-08-31T12:39:22.015Z,99824.20
2023-08-31T12:44:29.920Z,99824.60
2023-08-31T12:49:35.098Z,99831.00
2023-08-31T12:54:37.937Z,99840.40
2023-08-31T12:59:43.669Z,99843.60
2023-08-31T13:04:47.103Z,99848.00
2023-08-31T13:09:53.114Z,99843.60
2023-08-31T13:14:56.072Z,99845.20
2023-08-31T13:20:05.208Z,99849.60
2023-08-31T13:25:12.539Z,99881.40
2023-08-31T13:30:15.462Z,99905.00
2023-08-31T13:35:18.396Z,99918.80
2023-08-31T13:40:21.125Z,99909.60
2023-08-31T13:45:29.853Z,99905.20
2023-08-31T13:50:33.888Z,99923.20
2023-08-31T13:55:39.299Z,99940.20
2023-08-31T14:00:43.345Z,99943.40
2023-08-31T14:05:52.482Z,99939.80
2023-08-31T14:11:05.327Z,99938.20
2023-08-31T14:16:26.185Z,99945.00
2023-08-31T14:21:31.595Z,99937.80
2023-08-31T14:26:36.608Z,99935.00
2023-08-31T14:31:44.797Z,99932.80
2023-08-31T14:36:51.805Z,99930.40
2023-08-31T14:41:58.898Z,99935.00
2023-08-31T14:47:01.626Z,99956.40
2023-08-31T14:52:09.641Z,99969.60
2023-08-31T14:57:15.957Z,99970.40
2023-08-31T15:02:22.749Z,99979.60
2023-08-31T15:07:26.870Z,99993.40
2023-08-31T15:12:31.653Z,99987.40
2023-08-31T15:17:35.673Z,99994.00
2023-08-31T15:22:54.425Z,99998.80
2023-08-31T15:27:57.063Z,100000.40
2023-08-31T15:33:04.662Z,99999.20
2023-08-31T15:38:09.769Z,99997.00
2023-08-31T15:43:12.670Z,99990.20
2023-08-31T15:48:19.717Z,99993.20
2023-08-31T15:53:25.674Z,99993.20
2023-08-31T15:58:31.151Z,99994.80
2023-08-31T16:03:49.331Z,99994.80
2023-08-31T16:30:35.652Z,100000.60
2023-08-31T16:49:06.077Z,99999.60
2023-08-31T16:54:08.975Z,100000.40
2023-08-31T16:59:11.625Z,100006.20
2023-08-31T17:05:19.648Z,100010.60
2023-08-31T17:23:10.051Z,100028.60
2023-08-31T17:28:32.217Z,100039.60
2023-08-31T17:33:34.377Z,100040.40
2023-08-31T17:38:41.473Z,100038.20
2023-08-31T17:43:42.841Z,100044.00
2023-08-31T17:49:12.099Z,100051.60
2023-08-31T17:54:13.500Z,100045.80
2023-08-31T17:59:25.799Z,100057.80
2023-08-31T18:04:27.080Z,100060.80
2023-08-31T18:09:37.081Z,100070.00
2023-08-31T18:14:44.449Z,100072.80
2023-08-31T18:19:46.261Z,100073.60
2023-08-31T18:24:47.737Z,100084.80
2023-08-31T18:29:50.191Z,100089.00
2023-08-31T18:34:53.534Z,100097.00
2023-08-31T18:39:57.259Z,100115.00
2023-08-31T18:45:02.794Z,100121.60
2023-08-31T18:50:10.974Z,100114.80
2023-08-31T18:55:15.504Z,100121.20
2023-08-31T19:00:17.658Z,100127.40
2023-08-31T19:05:19.023Z,100130.80
2023-08-31T19:10:25.084Z,100128.80
2023-08-31T19:15:28.714Z,100128.20
2023-08-31T19:21:19.731Z,100130.40
2023-08-31T19:26:24.990Z,100130.60
2023-08-31T19:31:55.393Z,100138.60
2023-08-31T19:36:56.770Z,100140.40
2023-08-31T19:42:01.189Z,100145.80
2023-08-31T19:47:14.778Z,100149.00
2023-08-31T19:52:16.960Z,100159.20
2023-08-31T19:57:20.753Z,100172.00
2023-08-31T20:02:24.292Z,100170.00
2023-08-31T20:07:28.261Z,100175.00
2023-08-31T20:12:31.726Z,100177.20
2023-08-31T20:17:48.437Z,100180.60
2023-08-31T20:23:38.659Z,100188.00
2023-08-31T20:28:47.182Z,100195.40
2023-08-31T20:33:51.283Z,100201.80
2023-08-31T20:38:52.860Z,100205.20
2023-08-31T20:44:03.596Z,100205.60
2023-08-31T20:49:05.896Z,100204.20
2023-08-31T20:54:07.941Z,100201.80
2023-08-31T20:59:12.302Z,100206.40
2023-08-31T21:04:16.867Z,100210.20
2023-08-31T21:09:18.296Z,100217.20
2023-08-31T21:14:19.673Z,100221.60
2023-08-31T21:19:22.465Z,100227.40
2023-08-31T21:24:24.940Z,100227.40
2023-08-31T21:29:26.250Z,100225.20
2023-08-31T21:34:30.717Z,100231.40
2023-08-31T21:39:34.259Z,100237.80
2023-08-31T21:44:35.726Z,100237.60
2023-08-31T21:49:39.065Z,100233.20
2023-08-31T21:54:40.474Z,100240.00
2023-08-31T21:59:44.396Z,100233.00
2023-08-31T22:04:45.811Z,100233.80
2023-08-31T22:09:52.009Z,100226.60
2023-08-31T22:14:55.934Z,100229.80
2023-08-31T22:19:59.360Z,100227.80
2023-08-31T22:25:01.511Z,100221.60
2023-08-31T22:30:04.913Z,100228.20
2023-08-31T22:35:11.957Z,100224.80
2023-08-31T22:40:16.019Z,100228.80
2023-08-31T22:45:19.880Z,100224.00
2023-08-31T22:50:26.622Z,100223.00
2023-08-31T22:55:30.532Z,100222.00
2023-08-31T23:00:33.623Z,100220.80
2023-08-31T23:05:34.974Z,100212.20
2023-08-31T23:10:42.296Z,100224.80
2023-08-31T23:15:45.945Z,100223.80
2023-08-31T23:20:53.079Z,100223.60
2023-08-31T23:25:54.568Z,100226.40
2023-08-31T23:31:02.290Z,100220.80
2023-08-31T23:36:08.170Z,100227.20
2023-08-31T23:41:10.059Z,100226.60
2023-08-31T23:46:11.820Z,100232.00
2023-08-31T23:51:13.270Z,100235.20
2023-08-31T23:56:17.842Z,100244.60
